Time,TemperatureF,DewpointF,PressureIn,WindDirection,WindDirectionDegrees,WindSpeedMPH,WindSpeedGustMPH,Humidity,HourlyPrecipIn,Conditions,Clouds,dailyrainin,SoftwareType,DateUTC
2013-02-23 00:00:00,47.7,46.0,30.12,North,3,0.0,1.0,95,0.00,,,0.00,weatherlink.com 1.10,2013-02-23 05:00:00,
2013-02-23 00:15:00,47.9,47.0,30.11,NW,322,0.0,1.0,95,0.00,,,0.00,weatherlink.com 1.10,2013-02-23 05:15:00,
2013-02-23 00:31:00,48.1,47.0,30.11,WNW,294,0.0,4.0,95,0.00,,,0.00,weatherlink.com 1.10,2013-02-23 05:31:00,
2013-02-23 00:45:00,48.3,47.0,30.10,NW,305,0.0,2.0,95,0.00,,,0.00,weatherlink.com 1.10,2013-02-23 05:45:00,
2013-02-23 01:00:00,49.0,48.0,30.09,NW,316,0.0,4.0,95,0.00,,,0.00,weatherlink.com 1.10,2013-02-23 06:00:00,
2013-02-23 01:16:00,48.9,48.0,30.09,North,11,0.0,3.0,95,0.00,,,0.00,weatherlink.com 1.10,2013-02-23 06:16:00,
2013-02-23 01:31:00,49.2,48.0,30.08,WNW,297,0.0,2.0,95,0.00,,,0.00,weatherlink.com 1.10,2013-02-23 06:31:00,
2013-02-23 01:46:00,49.2,48.0,30.06,NE,43,0.0,1.0,96,0.00,,,0.00,weatherlink.com 1.10,2013-02-23 06:46:00,
2013-02-23 02:01:00,49.7,48.0,30.05,ENE,70,4.0,6.0,95,0.00,,,0.00,weatherlink.com 1.10,2013-02-23 07:01:00,
2013-02-23 02:16:00,49.6,49.0,30.05,ENE,70,1.0,4.0,96,0.24,,,0.24,weatherlink.com 1.10,2013-02-23 07:16:00,
2013-02-23 02:31:00,50.6,50.0,30.04,NNE,26,0.0,2.0,97,0.32,,,0.32,weatherlink.com 1.10,2013-02-23 07:31:00,
2013-02-23 02:46:00,51.0,50.0,30.02,NNE,18,1.0,2.0,97,0.33,,,0.33,weatherlink.com 1.10,2013-02-23 07:46:00,
2013-02-23 03:16:00,51.2,50.0,30.00,North,8,0.0,1.0,97,0.14,,,0.39,weatherlink.com 1.10,2013-02-23 08:16:00,
2013-02-23 03:31:00,53.3,53.0,29.99,NNW,348,1.0,2.0,97,0.13,,,0.45,weatherlink.com 1.10,2013-02-23 08:31:00,
2013-02-23 03:46:00,53.2,52.0,29.99,NNW,347,1.0,1.0,97,0.13,,,0.46,weatherlink.com 1.10,2013-02-23 08:46:00,
2013-02-23 04:01:00,54.7,54.0,29.98,East,84,0.0,2.0,98,0.16,,,0.51,weatherlink.com 1.10,2013-02-23 09:01:00,
2013-02-23 04:16:00,55.0,54.0,29.98,East,84,0.0,2.0,97,0.26,,,0.65,weatherlink.com 1.10,2013-02-23 09:16:00,
2013-02-23 04:31:00,55.5,55.0,29.97,NNE,33,0.0,2.0,98,0.20,,,0.66,weatherlink.com 1.10,2013-02-23 09:31:00,
2013-02-23 04:46:00,56.6,56.0,29.97,SE,139,0.0,3.0,98,0.20,,,0.00,weatherlink.com 1.10,2013-02-23 09:46:00,
2013-02-23 05:01:00,56.8,56.0,29.97,SW,222,0.0,1.0,98,0.15,,,0.00,weatherlink.com 1.10,2013-02-23 10:01:00,
2013-02-23 05:16:00,58.1,58.0,29.96,SE,143,0.0,1.0,98,0.02,,,0.01,weatherlink.com 1.10,2013-02-23 10:16:00,
2013-02-23 05:31:00,58.4,58.0,29.96,WSW,251,1.0,2.0,98,0.01,,,0.01,weatherlink.com 1.10,2013-02-23 10:31:00,
2013-02-23 05:46:00,58.9,58.0,29.95,SSW,208,0.0,2.0,98,0.01,,,0.01,weatherlink.com 1.10,2013-02-23 10:46:00,
2013-02-23 06:01:00,58.4,58.0,29.95,South,172,0.0,1.0,98,0.01,,,0.01,weatherlink.com 1.10,2013-02-23 11:01:00,
2013-02-23 06:17:00,58.2,58.0,29.95,SW,226,2.0,3.0,98,0.00,,,0.01,weatherlink.com 1.10,2013-02-23 11:17:00,
2013-02-23 06:31:00,57.7,58.0,29.96,WNW,288,1.0,2.0,99,0.01,,,0.02,weatherlink.com 1.10,2013-02-23 11:31:00,
2013-02-23 06:46:00,57.4,57.0,29.96,WNW,294,2.0,3.0,97,0.01,,,0.02,weatherlink.com 1.10,2013-02-23 11:46:00,
2013-02-23 07:01:00,55.6,55.0,29.97,WNW,293,1.0,4.0,97,0.01,,,0.02,weatherlink.com 1.10,2013-02-23 12:01:00,
2013-02-23 07:17:00,53.9,53.0,29.98,WNW,292,1.0,3.0,97,0.01,,,0.02,weatherlink.com 1.10,2013-02-23 12:17:00,
2013-02-23 07:32:00,52.5,52.0,29.98,WNW,288,1.0,3.0,97,0.02,,,0.04,weatherlink.com 1.10,2013-02-23 12:32:00,
2013-02-23 07:47:00,51.3,51.0,29.98,NW,308,1.0,3.0,98,0.02,,,0.04,weatherlink.com 1.10,2013-02-23 12:47:00,
2013-02-23 08:02:00,50.4,50.0,29.99,WNW,284,3.0,5.0,97,0.03,,,0.05,weatherlink.com 1.10,2013-02-23 13:02:00,
2013-02-23 08:17:00,49.6,49.0,29.99,WNW,285,1.0,3.0,98,0.03,,,0.05,weatherlink.com 1.10,2013-02-23 13:17:00,
2013-02-23 08:32:00,48.8,48.0,29.99,WNW,294,0.0,2.0,98,0.02,,,0.06,weatherlink.com 1.10,2013-02-23 13:32:00,
2013-02-23 08:47:00,48.1,48.0,29.99,WNW,285,0.0,1.0,98,0.03,,,0.07,weatherlink.com 1.10,2013-02-23 13:47:00,
2013-02-23 09:02:00,47.6,47.0,29.99,WNW,285,0.0,2.0,98,0.04,,,0.09,weatherlink.com 1.10,2013-02-23 14:02:00,
2013-02-23 09:17:00,47.3,47.0,29.98,WNW,295,1.0,2.0,98,0.07,,,0.12,weatherlink.com 1.10,2013-02-23 14:17:00,
2013-02-23 09:32:00,47.2,47.0,29.98,West,281,1.0,3.0,98,0.09,,,0.15,weatherlink.com 1.10,2013-02-23 14:32:00,
2013-02-23 09:47:00,46.9,46.0,29.97,West,268,0.0,5.0,98,0.10,,,0.17,weatherlink.com 1.10,2013-02-23 14:47:00,
2013-02-23 10:02:00,47.0,47.0,29.96,NW,308,2.0,3.0,98,0.08,,,0.17,weatherlink.com 1.10,2013-02-23 15:02:00,
2013-02-23 10:17:00,46.6,46.0,29.96,WNW,289,0.0,7.0,98,0.05,,,0.18,weatherlink.com 1.10,2013-02-23 15:17:00,
2013-02-23 10:32:00,46.3,46.0,29.96,North,9,0.0,2.0,98,0.05,,,0.20,weatherlink.com 1.10,2013-02-23 15:32:00,
2013-02-23 10:47:00,46.7,46.0,29.95,NE,34,0.0,0.0,98,0.05,,,0.22,weatherlink.com 1.10,2013-02-23 15:47:00,
2013-02-23 11:02:00,46.6,46.0,29.94,WNW,302,0.0,1.0,98,0.07,,,0.24,weatherlink.com 1.10,2013-02-23 16:02:00,
2013-02-23 11:17:00,46.7,46.0,29.95,West,262,0.0,1.0,98,0.08,,,0.26,weatherlink.com 1.10,2013-02-23 16:17:00,
2013-02-23 11:32:00,46.9,46.0,29.94,NNW,346,0.0,0.0,98,0.13,,,0.33,weatherlink.com 1.10,2013-02-23 16:32:00,
2013-02-23 11:47:00,47.3,47.0,29.93,NW,311,0.0,1.0,98,0.12,,,0.34,weatherlink.com 1.10,2013-02-23 16:47:00,
2013-02-23 12:02:00,47.4,47.0,29.91,East,86,0.0,2.0,98,0.12,,,0.36,weatherlink.com 1.10,2013-02-23 17:02:00,
2013-02-23 12:17:00,47.1,47.0,29.91,SSE,155,1.0,3.0,98,0.11,,,0.37,weatherlink.com 1.10,2013-02-23 17:17:00,
2013-02-23 12:32:00,47.1,47.0,29.91,West,281,0.0,2.0,98,0.04,,,0.37,weatherlink.com 1.10,2013-02-23 17:32:00,
2013-02-23 12:47:00,47.2,47.0,29.89,SSE,158,2.0,3.0,98,0.05,,,0.39,weatherlink.com 1.10,2013-02-23 17:47:00,
2013-02-23 13:02:00,47.1,47.0,29.89,SW,236,0.0,2.0,98,0.03,,,0.39,weatherlink.com 1.10,2013-02-23 18:02:00,
2013-02-23 13:17:00,47.2,47.0,29.88,SSE,165,1.0,2.0,98,0.03,,,0.40,weatherlink.com 1.10,2013-02-23 18:17:00,
2013-02-23 13:32:00,47.3,47.0,29.88,SSW,212,0.0,1.0,98,0.03,,,0.40,weatherlink.com 1.10,2013-02-23 18:32:00,
2013-02-23 13:47:00,47.5,47.0,29.87,SW,225,0.0,0.0,98,0.01,,,0.40,weatherlink.com 1.10,2013-02-23 18:47:00,
2013-02-23 14:02:00,47.9,48.0,29.87,SSW,210,1.0,1.0,99,0.01,,,0.40,weatherlink.com 1.10,2013-02-23 19:02:00,
2013-02-23 14:17:00,49.0,49.0,29.87,NW,311,0.0,1.0,99,0.00,,,0.40,weatherlink.com 1.10,2013-02-23 19:17:00,
2013-02-23 14:32:00,49.4,49.0,29.88,WSW,242,0.0,1.0,99,0.01,,,0.41,weatherlink.com 1.10,2013-02-23 19:32:00,
2013-02-23 14:47:00,49.7,50.0,29.88,WSW,246,0.0,4.0,99,0.01,,,0.41,weatherlink.com 1.10,2013-02-23 19:47:00,
2013-02-23 15:02:00,49.9,49.0,29.87,West,264,0.0,2.0,98,0.01,,,0.41,weatherlink.com 1.10,2013-02-23 20:02:00,
2013-02-23 15:17:00,49.9,49.0,29.86,West,267,0.0,2.0,98,0.01,,,0.41,weatherlink.com 1.10,2013-02-23 20:17:00,
2013-02-23 15:32:00,50.2,50.0,29.86,West,271,0.0,1.0,98,0.00,,,0.41,weatherlink.com 1.10,2013-02-23 20:32:00,
2013-02-23 15:47:00,50.6,50.0,29.86,SW,233,0.0,1.0,98,0.00,,,0.41,weatherlink.com 1.10,2013-02-23 20:47:00,
2013-02-23 16:03:00,50.5,50.0,29.85,WSW,257,0.0,2.0,98,0.00,,,0.41,weatherlink.com 1.10,2013-02-23 21:03:00,
2013-02-23 16:18:00,50.4,50.0,29.85,WNW,296,1.0,3.0,98,0.00,,,0.41,weatherlink.com 1.10,2013-02-23 21:18:00,
2013-02-23 16:33:00,50.3,50.0,29.85,WNW,286,0.0,3.0,98,0.00,,,0.41,weatherlink.com 1.10,2013-02-23 21:33:00,
2013-02-23 16:48:00,50.0,50.0,29.86,NNW,332,0.0,2.0,98,0.00,,,0.41,weatherlink.com 1.10,2013-02-23 21:48:00,
2013-02-23 17:03:00,49.4,49.0,29.86,WNW,292,0.0,2.0,98,0.00,,,0.41,weatherlink.com 1.10,2013-02-23 22:03:00,
2013-02-23 17:18:00,48.9,48.0,29.86,West,276,0.0,2.0,98,0.00,,,0.41,weatherlink.com 1.10,2013-02-23 22:18:00,
2013-02-23 17:33:00,48.4,48.0,29.85,WNW,301,0.0,1.0,98,0.00,,,0.41,weatherlink.com 1.10,2013-02-23 22:33:00,
2013-02-23 17:48:00,48.3,48.0,29.86,WSW,240,0.0,2.0,98,0.00,,,0.41,weatherlink.com 1.10,2013-02-23 22:48:00,
2013-02-23 18:03:00,48.1,48.0,29.86,WNW,283,0.0,1.0,98,0.00,,,0.41,weatherlink.com 1.10,2013-02-23 23:03:00,
2013-02-23 18:18:00,47.9,47.0,29.87,WNW,297,0.0,1.0,98,0.00,,,0.41,weatherlink.com 1.10,2013-02-23 23:18:00,
2013-02-23 18:33:00,47.8,47.0,29.87,NW,307,0.0,2.0,98,0.00,,,0.41,weatherlink.com 1.10,2013-02-23 23:33:00,
2013-02-23 18:48:00,47.7,47.0,29.86,NE,37,1.0,1.0,98,0.00,,,0.41,weatherlink.com 1.10,2013-02-23 23:48:00,
2013-02-23 19:03:00,47.5,47.0,29.85,ENE,74,0.0,1.0,98,0.00,,,0.41,weatherlink.com 1.10,2013-02-24 00:03:00,
2013-02-23 19:18:00,47.4,47.0,29.84,ESE,107,0.0,3.0,98,0.00,,,0.41,weatherlink.com 1.10,2013-02-24 00:18:00,
2013-02-23 19:33:00,47.4,47.0,29.87,NNW,327,1.0,2.0,98,0.00,,,0.41,weatherlink.com 1.10,2013-02-24 00:33:00,
2013-02-23 19:48:00,47.2,47.0,29.89,WSW,240,0.0,3.0,98,0.00,,,0.41,weatherlink.com 1.10,2013-02-24 00:48:00,
2013-02-23 20:03:00,47.0,47.0,29.85,SE,134,1.0,2.0,98,0.00,,,0.41,weatherlink.com 1.10,2013-02-24 01:03:00,
2013-02-23 20:18:00,47.0,47.0,29.85,SSW,207,0.0,3.0,99,0.00,,,0.41,weatherlink.com 1.10,2013-02-24 01:18:00,
2013-02-23 20:33:00,47.0,47.0,29.85,SE,146,0.0,1.0,98,0.00,,,0.41,weatherlink.com 1.10,2013-02-24 01:33:00,
2013-02-23 20:48:00,47.1,47.0,29.86,WNW,290,0.0,1.0,99,0.00,,,0.41,weatherlink.com 1.10,2013-02-24 01:48:00,
2013-02-23 21:03:00,47.2,47.0,29.88,WNW,289,0.0,4.0,99,0.00,,,0.41,weatherlink.com 1.10,2013-02-24 02:03:00,
2013-02-23 21:18:00,47.1,47.0,29.86,SE,141,1.0,4.0,99,0.00,,,0.41,weatherlink.com 1.10,2013-02-24 02:18:00,
2013-02-23 21:33:00,47.1,47.0,29.90,WSW,252,1.0,4.0,99,0.00,,,0.41,weatherlink.com 1.10,2013-02-24 02:33:00,
2013-02-23 21:48:00,47.1,47.0,29.89,WNW,283,0.0,4.0,99,0.00,,,0.41,weatherlink.com 1.10,2013-02-24 02:48:00,
2013-02-23 22:03:00,47.2,47.0,29.89,NW,304,0.0,5.0,99,0.00,,,0.41,weatherlink.com 1.10,2013-02-24 03:03:00,
2013-02-23 22:33:00,47.0,47.0,29.88,West,276,0.0,1.0,99,0.00,,,0.41,weatherlink.com 1.10,2013-02-24 03:33:00,
2013-02-23 22:48:00,46.8,47.0,29.88,NW,304,1.0,1.0,99,0.00,,,0.41,weatherlink.com 1.10,2013-02-24 03:48:00,
2013-02-23 23:03:00,46.7,47.0,29.86,West,276,0.0,1.0,99,0.00,,,0.41,weatherlink.com 1.10,2013-02-24 04:03:00,
2013-02-23 23:18:00,46.6,46.0,29.86,WNW,289,1.0,4.0,99,0.00,,,0.41,weatherlink.com 1.10,2013-02-24 04:18:00,
2013-02-23 23:33:00,46.6,46.0,29.86,WNW,294,0.0,1.0,99,0.00,,,0.41,weatherlink.com 1.10,2013-02-24 04:33:00,
2013-02-23 23:48:00,46.5,46.0,29.86,West,278,0.0,0.0,99,0.00,,,0.41,weatherlink.com 1.10,2013-02-24 04:48:00,